Time;durP1;ratioP1;P1;durP2;ratioP2;P2;SDS_P1;SDS_P2;PMS_P1;PMS_P2;Temp;Humidity;BMP_temperature;BMP_pressure;BME280_temperature;BME280_humidity;BME280_pressure;Samples;Min_cycle;Max_cycle;Signal;HPM_P1;HPM_P2
2022/07/01 00:00:04;;;;;;;;;;;12.50;99.90;;;;;;5006677;28;19925;-71
2022/07/01 00:02:32;;;;;;;;;;;12.50;99.90;;;;;;5008418;28;19980;-71
2022/07/01 00:04:59;;;;;;;;;;;12.50;99.90;;;;;;4997511;28;19968;-72
2022/07/01 00:07:25;;;;;;;;;;;12.40;99.90;;;;;;5011508;28;20292;-72
2022/07/01 00:09:52;;;;;;;;;;;12.40;99.90;;;;;;5000360;28;19984;-72
2022/07/01 00:12:19;;;;;;;;;;;12.40;99.90;;;;;;5004503;28;20012;-72
2022/07/01 00:14:46;;;;;;;;;;;12.40;99.90;;;;;;5001329;28;19979;-71
2022/07/01 00:17:14;;;;;;;;;;;12.40;99.90;;;;;;5010253;28;20020;-71
2022/07/01 00:19:41;;;;;;;;;;;12.40;99.90;;;;;;5010202;28;19983;-71
2022/07/01 00:22:07;;;;;;;;;;;12.40;99.90;;;;;;5011254;28;20389;-71
2022/07/01 00:24:34;;;;;;;;;;;12.40;99.90;;;;;;4994701;28;19926;-71
2022/07/01 00:27:01;;;;;;;;;;;12.40;99.90;;;;;;5001852;28;19984;-71
2022/07/01 00:29:27;;;;;;;;;;;12.40;99.90;;;;;;5002504;28;19956;-74
2022/07/01 00:31:54;;;;;;;;;;;12.40;99.90;;;;;;5010377;28;19932;-72
2022/07/01 00:34:22;;;;;;;;;;;12.30;99.90;;;;;;5004244;28;19979;-71
2022/07/01 00:36:49;;;;;;;;;;;12.30;99.90;;;;;;5011117;28;20012;-73
2022/07/01 00:39:15;;;;;;;;;;;12.30;99.90;;;;;;5010178;28;19969;-73
2022/07/01 00:41:42;;;;;;;;;;;12.40;99.90;;;;;;5009359;28;20424;-72
2022/07/01 00:44:16;;;;;;;;;;;12.40;99.90;;;;;;4997235;28;19984;-72
2022/07/01 00:46:42;;;;;;;;;;;12.40;99.90;;;;;;5005087;28;19983;-72
2022/07/01 00:49:10;;;;;;;;;;;12.40;99.90;;;;;;5003578;28;19934;-73
2022/07/01 00:51:38;;;;;;;;;;;12.40;99.90;;;;;;5003230;28;20012;-72
2022/07/01 00:54:04;;;;;;;;;;;12.40;99.90;;;;;;4998262;28;19925;-73
2022/07/01 00:56:32;;;;;;;;;;;12.40;99.90;;;;;;5003088;28;19961;-72
2022/07/01 00:58:59;;;;;;;;;;;12.40;99.90;;;;;;4993145;28;20025;-72
2022/07/01 01:01:25;;;;;;;;;;;12.40;99.90;;;;;;5007970;28;19967;-72
2022/07/01 01:03:52;;;;;;;;;;;12.30;99.90;;;;;;4997294;28;19933;-73
2022/07/01 01:06:19;;;;;;;;;;;12.30;99.90;;;;;;5001649;28;19925;-73
2022/07/01 01:08:48;;;;;;;;;;;12.30;99.90;;;;;;4994738;28;19932;-72
2022/07/01 01:11:15;;;;;;;;;;;12.30;99.90;;;;;;5002272;28;19933;-73
2022/07/01 01:13:42;;;;;;;;;;;12.30;99.90;;;;;;5004201;28;19932;-72
2022/07/01 01:16:09;;;;;;;;;;;12.30;99.90;;;;;;5010208;28;20369;-72
2022/07/01 01:18:35;;;;;;;;;;;12.30;99.90;;;;;;5007894;28;19926;-72
2022/07/01 01:21:03;;;;;;;;;;;12.30;99.90;;;;;;5000084;28;19997;-73
2022/07/01 01:23:30;;;;;;;;;;;12.30;99.90;;;;;;5005251;28;19935;-72
2022/07/01 01:25:57;;;;;;;;;;;12.30;99.90;;;;;;4992325;28;20385;-72
2022/07/01 01:28:25;;;;;;;;;;;12.30;99.90;;;;;;4992655;28;19941;-72
2022/07/01 01:30:52;;;;;;;;;;;12.30;99.90;;;;;;5005963;28;19947;-72
2022/07/01 01:33:18;;;;;;;;;;;12.30;99.90;;;;;;5004539;28;19973;-72
2022/07/01 01:35:45;;;;;;;;;;;12.30;99.90;;;;;;4993128;28;19948;-72
2022/07/01 01:38:13;;;;;;;;;;;12.30;99.90;;;;;;4996510;28;20035;-72
2022/07/01 01:40:40;;;;;;;;;;;12.30;99.90;;;;;;5007173;28;20349;-72
2022/07/01 01:43:06;;;;;;;;;;;12.30;99.90;;;;;;5009176;28;20020;-72
2022/07/01 01:45:33;;;;;;;;;;;12.30;99.90;;;;;;5000605;28;19971;-72
2022/07/01 01:48:00;;;;;;;;;;;12.40;99.90;;;;;;5005545;28;19932;-72
2022/07/01 01:50:27;;;;;;;;;;;12.40;99.90;;;;;;4995026;28;20004;-72
2022/07/01 01:52:53;;;;;;;;;;;12.30;99.90;;;;;;4996624;28;19968;-72
2022/07/01 01:55:21;;;;;;;;;;;12.40;99.90;;;;;;5001168;28;19981;-72
2022/07/01 01:57:48;;;;;;;;;;;12.30;99.90;;;;;;5010599;28;19976;-71
2022/07/01 02:00:15;;;;;;;;;;;12.40;99.90;;;;;;5009837;28;19936;-71
2022/07/01 02:02:41;;;;;;;;;;;12.30;99.90;;;;;;5006934;28;19984;-72
2022/07/01 02:05:10;;;;;;;;;;;12.30;99.90;;;;;;5000877;28;19932;-72
2022/07/01 02:07:37;;;;;;;;;;;12.30;99.90;;;;;;5011976;28;20036;-72
2022/07/01 02:10:04;;;;;;;;;;;12.30;99.90;;;;;;4993614;28;20272;-71
2022/07/01 02:12:33;;;;;;;;;;;12.20;99.90;;;;;;5004478;28;20016;-72
2022/07/01 02:14:59;;;;;;;;;;;12.20;99.90;;;;;;4990517;28;19933;-72
2022/07/01 02:17:26;;;;;;;;;;;12.20;99.90;;;;;;4993651;28;19968;-72
2022/07/01 02:19:53;;;;;;;;;;;12.20;99.90;;;;;;5002433;28;19926;-72
2022/07/01 02:22:19;;;;;;;;;;;12.20;99.90;;;;;;5007291;28;19973;-72
2022/07/01 02:24:46;;;;;;;;;;;12.20;99.90;;;;;;5010566;28;20021;-71
2022/07/01 02:27:13;;;;;;;;;;;12.20;99.90;;;;;;5012715;28;20028;-72
2022/07/01 02:29:41;;;;;;;;;;;12.10;99.90;;;;;;5005867;28;19925;-72
2022/07/01 02:32:08;;;;;;;;;;;12.10;99.90;;;;;;5009225;28;19926;-74
2022/07/01 02:34:35;;;;;;;;;;;12.10;99.90;;;;;;5007330;28;20393;-72
2022/07/01 02:37:01;;;;;;;;;;;12.10;99.90;;;;;;4999559;28;20028;-72
2022/07/01 02:39:28;;;;;;;;;;;12.10;99.90;;;;;;4994696;28;20025;-72
2022/07/01 02:44:39;;;;;;;;;;;12.10;99.90;;;;;;5002088;28;20459;-73
2022/07/01 02:47:07;;;;;;;;;;;12.10;99.90;;;;;;5010323;28;19973;-74
2022/07/01 02:49:34;;;;;;;;;;;12.10;99.90;;;;;;5003646;28;20395;-73
2022/07/01 02:52:00;;;;;;;;;;;12.00;99.90;;;;;;4995437;28;20008;-74
2022/07/01 02:54:27;;;;;;;;;;;12.00;99.90;;;;;;5004983;28;19932;-74
2022/07/01 02:56:53;;;;;;;;;;;12.00;99.90;;;;;;5008920;28;19972;-73
2022/07/01 02:59:20;;;;;;;;;;;12.00;99.90;;;;;;5010480;28;19964;-73
2022/07/01 03:01:47;;;;;;;;;;;12.00;99.90;;;;;;4998361;28;20012;-73
2022/07/01 03:04:15;;;;;;;;;;;12.00;99.90;;;;;;5005463;28;19940;-73
2022/07/01 03:06:41;;;;;;;;;;;12.00;99.90;;;;;;5004382;28;19926;-74
2022/07/01 03:09:08;;;;;;;;;;;12.00;99.90;;;;;;4994237;28;20194;-73
2022/07/01 03:11:35;;;;;;;;;;;12.00;99.90;;;;;;5000873;28;20399;-73
2022/07/01 03:14:02;;;;;;;;;;;12.00;99.90;;;;;;4935709;28;1799881;-73
2022/07/01 03:16:28;;;;;;;;;;;12.00;99.90;;;;;;5007070;28;19965;-73
2022/07/01 03:18:55;;;;;;;;;;;12.00;99.90;;;;;;4996570;28;20397;-73
2022/07/01 03:21:23;;;;;;;;;;;12.00;99.90;;;;;;5004363;28;20360;-74
2022/07/01 03:23:50;;;;;;;;;;;11.90;99.90;;;;;;5001255;28;19961;-73
2022/07/01 03:26:16;;;;;;;;;;;12.00;99.90;;;;;;5004581;28;19925;-73
2022/07/01 03:28:43;;;;;;;;;;;12.00;99.90;;;;;;5012554;28;19933;-73
2022/07/01 03:31:10;;;;;;;;;;;11.90;99.90;;;;;;5004735;28;19925;-72
2022/07/01 03:33:37;;;;;;;;;;;11.90;99.90;;;;;;5006206;28;19926;-72
2022/07/01 03:36:04;;;;;;;;;;;11.90;99.90;;;;;;4994109;28;19926;-72
2022/07/01 03:38:32;;;;;;;;;;;11.90;99.90;;;;;;5003413;28;19925;-72
2022/07/01 03:40:58;;;;;;;;;;;11.90;99.90;;;;;;5000553;28;19964;-72
2022/07/01 03:43:25;;;;;;;;;;;11.90;99.90;;;;;;5001277;28;19926;-73
2022/07/01 03:45:52;;;;;;;;;;;11.90;99.90;;;;;;5011959;28;20032;-72
2022/07/01 03:48:18;;;;;;;;;;;12.00;99.90;;;;;;5004722;28;20480;-72
2022/07/01 03:50:45;;;;;;;;;;;12.00;99.90;;;;;;5007829;28;20016;-72
2022/07/01 03:55:57;;;;;;;;;;;11.90;99.90;;;;;;4997380;28;20293;-73
2022/07/01 03:58:24;;;;;;;;;;;12.00;99.90;;;;;;5003024;28;19976;-73
2022/07/01 04:00:50;;;;;;;;;;;12.00;99.90;;;;;;5006547;28;19983;-73
2022/07/01 04:03:17;;;;;;;;;;;12.00;99.90;;;;;;5005052;28;19925;-73
2022/07/01 04:05:44;;;;;;;;;;;12.00;99.90;;;;;;5002104;28;20491;-73
2022/07/01 04:08:11;;;;;;;;;;;12.10;99.90;;;;;;5001991;28;20016;-73
2022/07/01 04:10:38;;;;;;;;;;;12.00;99.90;;;;;;5004575;28;19926;-73
2022/07/01 04:13:06;;;;;;;;;;;12.10;99.90;;;;;;4996305;28;19972;-73
2022/07/01 04:15:33;;;;;;;;;;;12.10;99.90;;;;;;4997081;28;20436;-73
2022/07/01 04:18:00;;;;;;;;;;;12.20;99.90;;;;;;5004752;28;19926;-73
2022/07/01 04:20:27;;;;;;;;;;;12.30;99.90;;;;;;4996946;28;20010;-73
2022/07/01 04:22:53;;;;;;;;;;;12.30;99.90;;;;;;4994927;28;19976;-73
2022/07/01 04:25:19;;;;;;;;;;;12.20;99.90;;;;;;5001909;28;19973;-73
2022/07/01 04:27:46;;;;;;;;;;;12.20;99.90;;;;;;5005229;28;19926;-73
2022/07/01 04:30:14;;;;;;;;;;;12.10;99.90;;;;;;4996922;28;19934;-73
2022/07/01 04:32:41;;;;;;;;;;;12.10;99.90;;;;;;4995498;28;19926;-72
2022/07/01 04:35:10;;;;;;;;;;;12.00;99.90;;;;;;5002640;28;19925;-72
2022/07/01 04:37:36;;;;;;;;;;;12.10;99.90;;;;;;5003836;28;19926;-72
2022/07/01 04:40:03;;;;;;;;;;;12.00;99.90;;;;;;4996782;28;20016;-73
2022/07/01 04:42:29;;;;;;;;;;;12.00;99.90;;;;;;5002307;28;20022;-73
2022/07/01 04:44:56;;;;;;;;;;;12.00;99.90;;;;;;5002354;28;20007;-73
2022/07/01 04:47:24;;;;;;;;;;;11.90;99.90;;;;;;5005833;28;19926;-74
2022/07/01 04:49:50;;;;;;;;;;;11.90;99.90;;;;;;4996181;28;20020;-73
2022/07/01 04:52:17;;;;;;;;;;;12.00;99.90;;;;;;4997137;28;19925;-72
2022/07/01 04:54:44;;;;;;;;;;;11.90;99.90;;;;;;5002894;28;19969;-73
2022/07/01 04:57:10;;;;;;;;;;;12.00;99.90;;;;;;4999231;28;19973;-73
2022/07/01 04:59:37;;;;;;;;;;;12.00;99.90;;;;;;4992330;28;19965;-73
2022/07/01 05:02:04;;;;;;;;;;;12.10;99.90;;;;;;5001765;28;20397;-73
2022/07/01 05:04:32;;;;;;;;;;;12.10;99.90;;;;;;4999076;28;19925;-73
2022/07/01 05:06:59;;;;;;;;;;;12.10;99.90;;;;;;5006697;28;19925;-73
2022/07/01 05:09:25;;;;;;;;;;;12.20;99.90;;;;;;5007610;28;19925;-73
2022/07/01 05:11:52;;;;;;;;;;;12.30;99.90;;;;;;5007176;28;19951;-73
2022/07/01 05:14:19;;;;;;;;;;;12.30;99.90;;;;;;4992700;28;20025;-73
2022/07/01 05:16:46;;;;;;;;;;;12.40;99.90;;;;;;5006814;28;19925;-74
2022/07/01 05:21:58;;;;;;;;;;;12.50;99.90;;;;;;5000685;28;20408;-73
2022/07/01 05:24:25;;;;;;;;;;;12.50;99.90;;;;;;4994600;28;19948;-73
2022/07/01 05:26:52;;;;;;;;;;;12.50;99.90;;;;;;4997169;28;20449;-73
2022/07/01 05:29:19;;;;;;;;;;;12.50;99.90;;;;;;4996609;28;20336;-73
2022/07/01 05:31:45;;;;;;;;;;;12.50;99.90;;;;;;4993791;28;19980;-73
2022/07/01 05:34:12;;;;;;;;;;;12.50;99.90;;;;;;4997090;28;19925;-73
2022/07/01 05:36:39;;;;;;;;;;;12.50;99.90;;;;;;4996208;28;19933;-73
2022/07/01 05:39:07;;;;;;;;;;;12.50;99.90;;;;;;4994902;28;20017;-73
2022/07/01 05:41:34;;;;;;;;;;;12.60;99.90;;;;;;4992778;28;19926;-72
2022/07/01 05:44:01;;;;;;;;;;;12.70;99.90;;;;;;4995001;28;19934;-73
2022/07/01 05:46:27;;;;;;;;;;;12.80;99.90;;;;;;5000323;28;20012;-73
2022/07/01 05:48:54;;;;;;;;;;;12.80;99.90;;;;;;4992593;28;20017;-73
2022/07/01 05:51:21;;;;;;;;;;;12.90;99.90;;;;;;4996256;28;19976;-74
2022/07/01 05:53:48;;;;;;;;;;;12.90;99.90;;;;;;5007099;28;20341;-72
2022/07/01 05:56:16;;;;;;;;;;;13.00;99.90;;;;;;5001561;28;20366;-72
2022/07/01 05:58:43;;;;;;;;;;;13.00;99.90;;;;;;5006400;28;19926;-72
2022/07/01 06:01:10;;;;;;;;;;;13.20;99.90;;;;;;4999016;28;19956;-74
2022/07/01 06:03:37;;;;;;;;;;;13.50;99.90;;;;;;5006171;28;19980;-76
2022/07/01 06:06:04;;;;;;;;;;;15.00;99.90;;;;;;5000494;28;19929;-72
2022/07/01 06:08:31;;;;;;;;;;;17.20;99.90;;;;;;4996324;28;19976;-73
2022/07/01 06:10:57;;;;;;;;;;;18.80;99.90;;;;;;4996963;28;20471;-71
2022/07/01 06:13:25;;;;;;;;;;;20.10;99.90;;;;;;5004515;28;20013;-73
2022/07/01 06:15:52;;;;;;;;;;;20.90;98.10;;;;;;5001180;28;20438;-73
2022/07/01 06:18:19;;;;;;;;;;;22.10;93.60;;;;;;5008662;28;19925;-73
2022/07/01 06:20:46;;;;;;;;;;;22.10;90.10;;;;;;4998510;28;19925;-73
2022/07/01 06:23:13;;;;;;;;;;;22.30;87.50;;;;;;5009353;28;20023;-73
2022/07/01 06:25:39;;;;;;;;;;;23.00;84.10;;;;;;4996626;28;19980;-73
2022/07/01 06:28:06;;;;;;;;;;;22.60;80.80;;;;;;4996566;28;19995;-73
2022/07/01 06:30:34;;;;;;;;;;;24.00;77.80;;;;;;4994187;28;19983;-73
2022/07/01 06:33:01;;;;;;;;;;;24.40;69.10;;;;;;4997796;28;20004;-73
2022/07/01 06:35:27;;;;;;;;;;;24.40;62.90;;;;;;4993514;28;20359;-73
2022/07/01 06:37:54;;;;;;;;;;;24.40;60.00;;;;;;5000131;28;20008;-73
2022/07/01 06:40:21;;;;;;;;;;;24.10;59.40;;;;;;5005569;28;19968;-72
2022/07/01 06:42:47;;;;;;;;;;;24.30;57.80;;;;;;5010194;28;20466;-72
2022/07/01 06:45:14;;;;;;;;;;;23.70;57.60;;;;;;5007782;28;19937;-73
2022/07/01 06:47:42;;;;;;;;;;;24.30;58.10;;;;;;4995985;28;19934;-73
2022/07/01 06:50:09;;;;;;;;;;;23.90;56.70;;;;;;4997168;28;19926;-72
2022/07/01 06:52:36;;;;;;;;;;;23.00;57.30;;;;;;4997796;28;19932;-72
2022/07/01 06:55:02;;;;;;;;;;;23.20;60.20;;;;;;4995845;28;20468;-73
2022/07/01 06:57:29;;;;;;;;;;;23.70;57.10;;;;;;4995947;28;19957;-72
2022/07/01 06:59:56;;;;;;;;;;;23.60;57.30;;;;;;4992428;28;19969;-73
2022/07/01 07:02:23;;;;;;;;;;;23.90;57.30;;;;;;5000198;28;20104;-74
2022/07/01 07:04:54;;;;;;;;;;;23.80;56.10;;;;;;5005618;28;19972;-72
2022/07/01 07:07:20;;;;;;;;;;;22.90;57.40;;;;;;4998000;28;19933;-73
2022/07/01 07:09:47;;;;;;;;;;;22.80;58.40;;;;;;5007210;28;19976;-73
2022/07/01 07:12:14;;;;;;;;;;;23.20;58.90;;;;;;5006412;28;20040;-72
2022/07/01 07:14:40;;;;;;;;;;;24.40;57.80;;;;;;5011024;28;19964;-73
2022/07/01 07:17:07;;;;;;;;;;;25.00;54.20;;;;;;5004748;28;20021;-73
2022/07/01 07:19:34;;;;;;;;;;;24.60;49.90;;;;;;5006586;28;19991;-73
2022/07/01 07:22:02;;;;;;;;;;;24.70;51.70;;;;;;5009500;28;20427;-73
2022/07/01 07:24:29;;;;;;;;;;;24.80;51.00;;;;;;5002929;28;20009;-73
2022/07/01 07:26:55;;;;;;;;;;;24.60;50.30;;;;;;5000561;28;20482;-72
2022/07/01 07:29:22;;;;;;;;;;;24.30;49.50;;;;;;5003495;28;20916;-73
2022/07/01 07:31:49;;;;;;;;;;;24.20;49.10;;;;;;4998388;28;19933;-74
2022/07/01 07:34:16;;;;;;;;;;;25.30;48.50;;;;;;5007129;28;20460;-73
2022/07/01 07:36:42;;;;;;;;;;;25.00;46.70;;;;;;4998630;28;19972;-73
2022/07/01 07:39:10;;;;;;;;;;;23.80;49.70;;;;;;5001792;28;20396;-73
2022/07/01 07:41:37;;;;;;;;;;;24.10;49.80;;;;;;4995776;28;20063;-71
2022/07/01 07:44:04;;;;;;;;;;;25.00;47.30;;;;;;4991605;28;19980;-71
2022/07/01 07:46:31;;;;;;;;;;;25.70;44.60;;;;;;4994760;28;20016;-71
2022/07/01 07:48:57;;;;;;;;;;;25.00;44.00;;;;;;4999585;28;19926;-72
2022/07/01 07:51:24;;;;;;;;;;;25.60;42.90;;;;;;4998566;28;19929;-72
2022/07/01 07:53:51;;;;;;;;;;;25.80;41.30;;;;;;4992413;28;20420;-72
2022/07/01 07:56:19;;;;;;;;;;;26.50;40.20;;;;;;4996138;28;20472;-71
2022/07/01 07:58:46;;;;;;;;;;;26.40;37.40;;;;;;4996688;28;23216;-71
2022/07/01 08:01:13;;;;;;;;;;;26.30;37.60;;;;;;5000076;28;19926;-73
2022/07/01 08:03:40;;;;;;;;;;;26.20;34.50;;;;;;4997667;28;19929;-71
2022/07/01 08:06:07;;;;;;;;;;;25.60;37.30;;;;;;4994561;28;19960;-72
2022/07/01 08:08:33;;;;;;;;;;;26.40;36.90;;;;;;4992574;28;20742;-72
2022/07/01 08:11:00;;;;;;;;;;;25.30;36.40;;;;;;5001277;28;20452;-72
2022/07/01 08:13:29;;;;;;;;;;;23.50;38.30;;;;;;4997431;28;19930;-74
2022/07/01 08:15:55;;;;;;;;;;;24.10;39.60;;;;;;4998181;28;20001;-73
2022/07/01 08:18:22;;;;;;;;;;;25.90;37.30;;;;;;4993330;28;20021;-74
2022/07/01 08:20:52;;;;;;;;;;;25.40;36.90;;;;;;4994114;28;20598;-74
2022/07/01 08:23:19;;;;;;;;;;;24.70;38.00;;;;;;4999490;28;19926;-74
2022/07/01 08:25:46;;;;;;;;;;;24.90;37.10;;;;;;4994487;28;19933;-73
2022/07/01 08:28:12;;;;;;;;;;;25.10;37.10;;;;;;4995598;28;20036;-72
2022/07/01 08:30:40;;;;;;;;;;;24.80;37.50;;;;;;4997348;28;20008;-73
2022/07/01 08:33:07;;;;;;;;;;;25.00;37.40;;;;;;4999722;28;19925;-72
2022/07/01 08:35:34;;;;;;;;;;;24.80;37.10;;;;;;4995626;28;20046;-73
2022/07/01 08:38:00;;;;;;;;;;;24.30;39.40;;;;;;4996714;28;20400;-72
2022/07/01 08:40:28;;;;;;;;;;;24.80;36.90;;;;;;4997171;28;19965;-72
2022/07/01 08:42:58;;;;;;;;;;;24.00;37.90;;;;;;4996503;28;19926;-72
2022/07/01 08:45:26;;;;;;;;;;;23.20;41.10;;;;;;4994605;28;19926;-71
2022/07/01 08:47:57;;;;;;;;;;;23.20;41.40;;;;;;5005413;28;20020;-73
2022/07/01 08:50:24;;;;;;;;;;;24.50;38.90;;;;;;5002895;28;19926;-71
2022/07/01 08:52:51;;;;;;;;;;;25.80;35.10;;;;;;5002615;28;19945;-72
2022/07/01 08:55:18;;;;;;;;;;;25.20;34.50;;;;;;4993266;28;19929;-71
2022/07/01 08:57:44;;;;;;;;;;;23.10;38.10;;;;;;5002889;28;20013;-71
2022/07/01 09:00:11;;;;;;;;;;;22.10;40.40;;;;;;4996651;28;19934;-71
2022/07/01 09:02:56;;;;;;;;;;;21.40;42.40;;;;;;4993725;28;19933;-72
2022/07/01 09:05:23;;;;;;;;;;;21.20;44.80;;;;;;5000690;28;20424;-71
2022/07/01 09:07:56;;;;;;;;;;;21.90;43.50;;;;;;4997710;28;20371;-73
2022/07/01 09:10:23;;;;;;;;;;;23.30;39.70;;;;;;4995265;28;20017;-72
2022/07/01 09:12:50;;;;;;;;;;;22.30;40.30;;;;;;4995681;28;19941;-71
2022/07/01 09:15:25;;;;;;;;;;;20.70;44.70;;;;;;4999055;28;20097;-74
2022/07/01 09:17:52;;;;;;;;;;;20.10;48.20;;;;;;4995955;28;20305;-73
2022/07/01 09:20:28;;;;;;;;;;;19.90;50.80;;;;;;4990834;28;19926;-72
2022/07/01 09:23:02;;;;;;;;;;;19.60;50.70;;;;;;4997892;28;20392;-73
2022/07/01 09:25:30;;;;;;;;;;;21.50;49.60;;;;;;4997311;28;19996;-73
2022/07/01 09:28:06;;;;;;;;;;;23.30;46.40;;;;;;4994316;28;19934;-73
2022/07/01 09:30:33;;;;;;;;;;;24.70;41.70;;;;;;4998627;28;19980;-74
2022/07/01 09:33:07;;;;;;;;;;;25.60;36.60;;;;;;5000139;28;19956;-73
2022/07/01 09:35:36;;;;;;;;;;;25.70;33.80;;;;;;5001724;28;20008;-74
2022/07/01 09:38:03;;;;;;;;;;;25.00;34.90;;;;;;4999867;28;19940;-73
2022/07/01 09:40:49;;;;;;;;;;;23.20;35.40;;;;;;4996811;28;19944;-75
2022/07/01 09:43:16;;;;;;;;;;;22.30;38.50;;;;;;4998019;28;19931;-74
2022/07/01 09:45:50;;;;;;;;;;;21.50;41.90;;;;;;4995744;28;19991;-74
2022/07/01 09:48:17;;;;;;;;;;;22.60;41.70;;;;;;4998760;28;19929;-74
2022/07/01 09:50:45;;;;;;;;;;;23.90;40.30;;;;;;5001015;28;19926;-75
2022/07/01 09:53:12;;;;;;;;;;;25.10;36.70;;;;;;5001096;28;19925;-72
2022/07/01 09:55:40;;;;;;;;;;;25.30;35.50;;;;;;5005540;28;19976;-73
2022/07/01 09:58:07;;;;;;;;;;;25.10;34.90;;;;;;5000087;28;19936;-74
2022/07/01 10:00:36;;;;;;;;;;;24.60;34.90;;;;;;4997707;28;20112;-74
2022/07/01 10:03:03;;;;;;;;;;;24.10;35.40;;;;;;5000738;28;20016;-74
2022/07/01 10:05:31;;;;;;;;;;;24.30;34.50;;;;;;5004584;28;19979;-74
2022/07/01 10:08:06;;;;;;;;;;;24.40;34.10;;;;;;4995010;28;19969;-74
2022/07/01 10:10:40;;;;;;;;;;;24.00;34.00;;;;;;4994060;28;20284;-72
2022/07/01 10:13:08;;;;;;;;;;;23.00;36.00;;;;;;4992030;28;20045;-73
2022/07/01 10:15:35;;;;;;;;;;;22.90;37.20;;;;;;4993264;28;19929;-72
2022/07/01 10:18:03;;;;;;;;;;;22.40;35.40;;;;;;4995319;28;19938;-72
2022/07/01 10:20:31;;;;;;;;;;;21.50;36.10;;;;;;4995365;28;19932;-72
2022/07/01 10:23:03;;;;;;;;;;;21.00;38.00;;;;;;4993752;28;19941;-72
2022/07/01 10:25:41;;;;;;;;;;;20.80;37.80;;;;;;4995188;28;19937;-72
2022/07/01 10:28:15;;;;;;;;;;;20.70;38.90;;;;;;4996844;28;19972;-71
2022/07/01 10:31:07;;;;;;;;;;;20.80;38.80;;;;;;4994747;28;19925;-71
2022/07/01 10:33:36;;;;;;;;;;;21.00;38.70;;;;;;4977771;28;19933;-73
2022/07/01 10:36:07;;;;;;;;;;;20.80;40.30;;;;;;4996500;28;19988;-73
2022/07/01 10:38:35;;;;;;;;;;;20.90;38.30;;;;;;4992197;28;19965;-73
2022/07/01 10:41:10;;;;;;;;;;;20.80;38.60;;;;;;5003662;28;19961;-72
2022/07/01 10:43:37;;;;;;;;;;;20.90;40.10;;;;;;4995176;28;19930;-73
2022/07/01 10:46:04;;;;;;;;;;;20.90;38.90;;;;;;5000085;28;19925;-73
2022/07/01 10:48:32;;;;;;;;;;;20.60;39.10;;;;;;5002362;28;19980;-73
2022/07/01 10:50:59;;;;;;;;;;;20.50;41.40;;;;;;4999557;28;19984;-73
2022/07/01 10:53:31;;;;;;;;;;;21.00;38.50;;;;;;4999357;28;19932;-73
2022/07/01 10:56:00;;;;;;;;;;;21.20;37.40;;;;;;5000055;28;20020;-71
2022/07/01 10:58:36;;;;;;;;;;;21.30;38.90;;;;;;5003477;28;19925;-74
2022/07/01 11:01:04;;;;;;;;;;;21.50;39.70;;;;;;5009697;28;20360;-74
2022/07/01 11:03:35;;;;;;;;;;;21.70;36.70;;;;;;5004506;28;19976;-73
2022/07/01 11:06:01;;;;;;;;;;;22.00;36.20;;;;;;5006700;28;20035;-74
2022/07/01 11:08:28;;;;;;;;;;;21.90;34.30;;;;;;4995973;28;20428;-73
2022/07/01 11:10:56;;;;;;;;;;;21.70;32.60;;;;;;5005440;28;20416;-73
2022/07/01 11:13:25;;;;;;;;;;;21.60;34.30;;;;;;5011958;28;20301;-72
2022/07/01 11:15:52;;;;;;;;;;;21.60;32.20;;;;;;5002550;28;20299;-72
2022/07/01 11:18:22;;;;;;;;;;;21.50;32.10;;;;;;4996225;28;20303;-74
2022/07/01 11:20:48;;;;;;;;;;;21.50;34.30;;;;;;5007376;28;19925;-74
2022/07/01 11:23:16;;;;;;;;;;;21.70;33.70;;;;;;5002093;28;19979;-74
2022/07/01 11:25:42;;;;;;;;;;;21.40;33.20;;;;;;5006242;28;19933;-73
2022/07/01 11:28:11;;;;;;;;;;;21.40;33.80;;;;;;5003731;28;19980;-73
2022/07/01 11:30:39;;;;;;;;;;;21.30;35.00;;;;;;5004738;28;20008;-74
2022/07/01 11:33:05;;;;;;;;;;;21.50;36.20;;;;;;5003508;28;20028;-73
2022/07/01 11:41:04;;;;;;;;;;;21.90;33.50;;;;;;5004252;28;20313;-71
2022/07/01 11:43:32;;;;;;;;;;;22.00;32.00;;;;;;5009306;28;20506;-72
2022/07/01 11:46:01;;;;;;;;;;;22.10;30.60;;;;;;5002537;28;19929;-71
2022/07/01 11:48:29;;;;;;;;;;;21.90;32.00;;;;;;5002361;28;19937;-72
2022/07/01 11:50:56;;;;;;;;;;;21.70;33.90;;;;;;5002462;28;19925;-72
2022/07/01 11:53:22;;;;;;;;;;;21.90;33.00;;;;;;5006611;28;20009;-73
2022/07/01 11:55:49;;;;;;;;;;;22.40;32.90;;;;;;5003512;28;20009;-72
2022/07/01 11:58:16;;;;;;;;;;;22.30;32.90;;;;;;5003429;28;19991;-72
2022/07/01 12:00:45;;;;;;;;;;;22.60;31.40;;;;;;5006948;28;19926;-73
2022/07/01 12:03:14;;;;;;;;;;;22.90;30.90;;;;;;5007341;28;19973;-73
2022/07/01 12:05:40;;;;;;;;;;;22.80;30.70;;;;;;4995826;28;19987;-73
2022/07/01 12:08:07;;;;;;;;;;;22.50;30.90;;;;;;5007999;28;20442;-73
2022/07/01 12:10:34;;;;;;;;;;;22.30;32.70;;;;;;5006767;28;20236;-72
2022/07/01 12:13:01;;;;;;;;;;;22.30;32.30;;;;;;5008632;28;20012;-71
2022/07/01 12:15:28;;;;;;;;;;;22.00;32.00;;;;;;5007065;28;19925;-72
2022/07/01 12:18:05;;;;;;;;;;;22.00;31.90;;;;;;5006239;28;19944;-72
2022/07/01 12:20:33;;;;;;;;;;;22.00;31.00;;;;;;5003874;28;19933;-73
2022/07/01 12:23:11;;;;;;;;;;;21.90;31.90;;;;;;4996205;28;20024;-72
2022/07/01 12:25:38;;;;;;;;;;;22.10;30.90;;;;;;4998772;28;19980;-78
2022/07/01 12:28:05;;;;;;;;;;;22.20;31.60;;;;;;4999497;28;20000;-77
2022/07/01 12:30:33;;;;;;;;;;;22.10;30.40;;;;;;4998962;28;20037;-78
2022/07/01 12:33:09;;;;;;;;;;;22.10;31.40;;;;;;4998337;28;19929;-74
2022/07/01 12:35:42;;;;;;;;;;;22.10;31.50;;;;;;4997771;28;19926;-73
2022/07/01 12:38:15;;;;;;;;;;;22.00;32.20;;;;;;5002841;28;19993;-72
2022/07/01 12:40:42;;;;;;;;;;;22.20;30.90;;;;;;5003740;28;20398;-72
2022/07/01 12:43:22;;;;;;;;;;;22.30;32.80;;;;;;5000490;28;19957;-72
2022/07/01 12:45:49;;;;;;;;;;;22.40;32.20;;;;;;5005169;28;19932;-73
2022/07/01 12:48:16;;;;;;;;;;;22.50;31.60;;;;;;5003982;28;19969;-73
2022/07/01 12:50:46;;;;;;;;;;;22.50;31.20;;;;;;4999173;28;19937;-73
2022/07/01 12:53:18;;;;;;;;;;;22.20;33.20;;;;;;5000445;28;19979;-73
2022/07/01 12:55:45;;;;;;;;;;;22.40;31.70;;;;;;5004596;28;20304;-71
2022/07/01 12:58:12;;;;;;;;;;;22.10;31.90;;;;;;5005818;28;19929;-73
2022/07/01 13:00:40;;;;;;;;;;;21.50;32.00;;;;;;5003383;28;19996;-72
2022/07/01 13:03:07;;;;;;;;;;;21.20;33.60;;;;;;5002091;28;20016;-73
2022/07/01 13:05:35;;;;;;;;;;;21.10;34.10;;;;;;5000879;28;20419;-72
2022/07/01 13:08:03;;;;;;;;;;;21.20;34.50;;;;;;5004332;28;19935;-72
2022/07/01 13:10:30;;;;;;;;;;;21.00;33.70;;;;;;5001638;28;20042;-70
2022/07/01 13:12:57;;;;;;;;;;;20.70;33.20;;;;;;4999406;28;19930;-70
2022/07/01 13:15:24;;;;;;;;;;;20.80;34.50;;;;;;4999928;28;19925;-70
2022/07/01 13:17:51;;;;;;;;;;;20.80;34.70;;;;;;5001093;28;19942;-70
2022/07/01 13:20:18;;;;;;;;;;;20.90;34.60;;;;;;5004156;28;19930;-69
2022/07/01 13:22:45;;;;;;;;;;;20.90;34.90;;;;;;5004493;28;19932;-65
2022/07/01 13:25:15;;;;;;;;;;;20.90;36.00;;;;;;5000029;28;19973;-67
2022/07/01 13:27:43;;;;;;;;;;;21.10;36.10;;;;;;5000099;28;19933;-68
2022/07/01 13:30:10;;;;;;;;;;;20.90;35.90;;;;;;4989929;28;19926;-68
2022/07/01 13:32:39;;;;;;;;;;;20.80;36.00;;;;;;4998584;28;20017;-68
2022/07/01 13:35:06;;;;;;;;;;;20.70;37.20;;;;;;4985439;28;20566;-69
2022/07/01 13:37:33;;;;;;;;;;;20.70;37.30;;;;;;4988111;28;19933;-68
2022/07/01 13:39:59;;;;;;;;;;;20.30;40.90;;;;;;4998644;28;19940;-68
2022/07/01 13:42:27;;;;;;;;;;;19.60;46.30;;;;;;5001443;28;20061;-68
2022/07/01 13:44:54;;;;;;;;;;;19.40;50.40;;;;;;4995978;28;20435;-68
2022/07/01 13:47:21;;;;;;;;;;;19.30;54.50;;;;;;4998129;28;20452;-67
2022/07/01 13:49:48;;;;;;;;;;;19.10;58.70;;;;;;5001238;28;20489;-68
2022/07/01 13:52:15;;;;;;;;;;;19.00;62.10;;;;;;5003995;28;19934;-68
2022/07/01 13:54:46;;;;;;;;;;;19.00;67.00;;;;;;5000786;28;19934;-69
2022/07/01 13:57:13;;;;;;;;;;;19.00;70.20;;;;;;5007742;28;19926;-68
2022/07/01 13:59:41;;;;;;;;;;;19.10;72.10;;;;;;5006542;28;20296;-69
2022/07/01 14:02:08;;;;;;;;;;;19.10;73.10;;;;;;4993612;28;19938;-68
2022/07/01 14:04:35;;;;;;;;;;;19.30;73.90;;;;;;5000080;28;20110;-70
2022/07/01 14:07:02;;;;;;;;;;;19.60;73.50;;;;;;5004157;28;19930;-68
2022/07/01 14:09:29;;;;;;;;;;;19.90;71.90;;;;;;5002563;28;19969;-67
2022/07/01 14:11:56;;;;;;;;;;;20.30;69.50;;;;;;5000110;28;19929;-68
2022/07/01 14:14:23;;;;;;;;;;;20.80;67.60;;;;;;5002701;28;19996;-67
2022/07/01 14:16:51;;;;;;;;;;;20.80;66.90;;;;;;5004582;28;19971;-68
2022/07/01 14:19:17;;;;;;;;;;;21.10;64.90;;;;;;5006022;28;19929;-67
2022/07/01 14:21:44;;;;;;;;;;;21.30;62.20;;;;;;5008226;28;19926;-68
2022/07/01 14:24:11;;;;;;;;;;;21.50;61.90;;;;;;5002341;28;19983;-68
2022/07/01 14:26:37;;;;;;;;;;;21.70;61.00;;;;;;5002906;28;20004;-68
2022/07/01 14:29:04;;;;;;;;;;;21.70;61.70;;;;;;5003500;28;19929;-68
2022/07/01 14:31:31;;;;;;;;;;;21.70;58.40;;;;;;5003789;28;19931;-71